sensor_id;sensor_type;location;lat;lon;timestamp;P1;durP1;ratioP1;P2;durP2;ratioP2
73632;SDS011;61927;50.080;14.418;2022-11-15T00:00:47;54.03;;;30.48;;
73632;SDS011;61927;50.080;14.418;2022-11-15T00:03:14;52.80;;;30.95;;
73632;SDS011;61927;50.080;14.418;2022-11-15T00:05:40;53.05;;;30.40;;
73632;SDS011;61927;50.080;14.418;2022-11-15T00:08:06;52.65;;;30.75;;
73632;SDS011;61927;50.080;14.418;2022-11-15T00:10:32;55.15;;;30.65;;
73632;SDS011;61927;50.080;14.418;2022-11-15T00:12:57;56.50;;;29.48;;
73632;SDS011;61927;50.080;14.418;2022-11-15T00:15:23;64.43;;;30.95;;
73632;SDS011;61927;50.080;14.418;2022-11-15T00:17:49;67.97;;;31.83;;
73632;SDS011;61927;50.080;14.418;2022-11-15T00:20:16;79.95;;;30.92;;
73632;SDS011;61927;50.080;14.418;2022-11-15T00:22:42;74.15;;;32.28;;
73632;SDS011;61927;50.080;14.418;2022-11-15T00:25:08;85.70;;;32.88;;
73632;SDS011;61927;50.080;14.418;2022-11-15T00:27:33;81.18;;;31.25;;
73632;SDS011;61927;50.080;14.418;2022-11-15T00:29:59;102.78;;;33.05;;
73632;SDS011;61927;50.080;14.418;2022-11-15T00:32:24;83.80;;;32.28;;
73632;SDS011;61927;50.080;14.418;2022-11-15T00:34:50;81.55;;;31.50;;
73632;SDS011;61927;50.080;14.418;2022-11-15T00:37:15;75.53;;;31.70;;
73632;SDS011;61927;50.080;14.418;2022-11-15T00:39:41;76.00;;;31.35;;
73632;SDS011;61927;50.080;14.418;2022-11-15T00:42:07;67.85;;;32.10;;
73632;SDS011;61927;50.080;14.418;2022-11-15T00:44:32;88.63;;;31.33;;
73632;SDS011;61927;50.080;14.418;2022-11-15T00:46:58;74.28;;;28.95;;
73632;SDS011;61927;50.080;14.418;2022-11-15T00:49:23;62.17;;;31.75;;
73632;SDS011;61927;50.080;14.418;2022-11-15T00:51:49;64.80;;;30.90;;
73632;SDS011;61927;50.080;14.418;2022-11-15T00:54:14;62.88;;;30.05;;
73632;SDS011;61927;50.080;14.418;2022-11-15T00:56:40;55.67;;;28.80;;
73632;SDS011;61927;50.080;14.418;2022-11-15T00:59:05;73.88;;;27.75;;
73632;SDS011;61927;50.080;14.418;2022-11-15T01:01:31;61.90;;;27.85;;
73632;SDS011;61927;50.080;14.418;2022-11-15T01:03:57;56.63;;;27.95;;
73632;SDS011;61927;50.080;14.418;2022-11-15T01:06:22;57.53;;;27.95;;
73632;SDS011;61927;50.080;14.418;2022-11-15T01:08:48;69.38;;;28.35;;
73632;SDS011;61927;50.080;14.418;2022-11-15T01:11:13;71.55;;;26.50;;
73632;SDS011;61927;50.080;14.418;2022-11-15T01:13:39;66.28;;;28.13;;
73632;SDS011;61927;50.080;14.418;2022-11-15T01:16:09;54.53;;;27.05;;
73632;SDS011;61927;50.080;14.418;2022-11-15T01:18:39;67.57;;;28.33;;
73632;SDS011;61927;50.080;14.418;2022-11-15T01:21:09;50.80;;;27.40;;
73632;SDS011;61927;50.080;14.418;2022-11-15T01:23:36;54.90;;;26.15;;
73632;SDS011;61927;50.080;14.418;2022-11-15T01:26:02;58.47;;;26.75;;
73632;SDS011;61927;50.080;14.418;2022-11-15T01:28:30;52.28;;;26.20;;
73632;SDS011;61927;50.080;14.418;2022-11-15T01:31:00;79.32;;;27.95;;
73632;SDS011;61927;50.080;14.418;2022-11-15T01:33:28;58.17;;;26.48;;
73632;SDS011;61927;50.080;14.418;2022-11-15T01:35:54;56.03;;;26.92;;
73632;SDS011;61927;50.080;14.418;2022-11-15T01:38:20;72.00;;;25.25;;
73632;SDS011;61927;50.080;14.418;2022-11-15T01:40:46;55.15;;;22.70;;
73632;SDS011;61927;50.080;14.418;2022-11-15T01:43:19;50.25;;;24.80;;
73632;SDS011;61927;50.080;14.418;2022-11-15T01:45:50;48.08;;;23.42;;
73632;SDS011;61927;50.080;14.418;2022-11-15T01:48:20;43.92;;;23.27;;
73632;SDS011;61927;50.080;14.418;2022-11-15T01:50:46;49.13;;;25.63;;
73632;SDS011;61927;50.080;14.418;2022-11-15T01:53:13;53.28;;;26.15;;
73632;SDS011;61927;50.080;14.418;2022-11-15T01:55:40;59.47;;;26.60;;
73632;SDS011;61927;50.080;14.418;2022-11-15T01:58:06;56.53;;;26.42;;
73632;SDS011;61927;50.080;14.418;2022-11-15T02:00:32;54.03;;;26.60;;
73632;SDS011;61927;50.080;14.418;2022-11-15T02:02:58;56.53;;;27.42;;
73632;SDS011;61927;50.080;14.418;2022-11-15T02:05:24;58.53;;;27.73;;
73632;SDS011;61927;50.080;14.418;2022-11-15T02:07:50;52.95;;;26.40;;
73632;SDS011;61927;50.080;14.418;2022-11-15T02:10:20;60.03;;;26.55;;
73632;SDS011;61927;50.080;14.418;2022-11-15T02:12:47;55.35;;;25.67;;
73632;SDS011;61927;50.080;14.418;2022-11-15T02:15:14;59.63;;;27.30;;
73632;SDS011;61927;50.080;14.418;2022-11-15T02:23:15;55.67;;;27.17;;
73632;SDS011;61927;50.080;14.418;2022-11-15T02:31:36;55.63;;;26.90;;
73632;SDS011;61927;50.080;14.418;2022-11-15T02:34:23;51.35;;;24.92;;
73632;SDS011;61927;50.080;14.418;2022-11-15T02:37:03;52.15;;;24.02;;
73632;SDS011;61927;50.080;14.418;2022-11-15T02:39:41;46.03;;;23.02;;
73632;SDS011;61927;50.080;14.418;2022-11-15T02:42:18;47.90;;;24.10;;
73632;SDS011;61927;50.080;14.418;2022-11-15T02:47:37;34.42;;;19.65;;
73632;SDS011;61927;50.080;14.418;2022-11-15T02:50:12;42.38;;;21.02;;
73632;SDS011;61927;50.080;14.418;2022-11-15T02:52:44;45.53;;;21.15;;
73632;SDS011;61927;50.080;14.418;2022-11-15T02:57:52;45.15;;;21.45;;
73632;SDS011;61927;50.080;14.418;2022-11-15T03:00:27;44.05;;;21.20;;
73632;SDS011;61927;50.080;14.418;2022-11-15T03:03:16;47.15;;;20.15;;
73632;SDS011;61927;50.080;14.418;2022-11-15T03:06:09;44.65;;;20.02;;
73632;SDS011;61927;50.080;14.418;2022-11-15T03:11:35;44.15;;;21.38;;
73632;SDS011;61927;50.080;14.418;2022-11-15T03:22:10;50.28;;;21.92;;
73632;SDS011;61927;50.080;14.418;2022-11-15T03:24:39;48.38;;;22.42;;
73632;SDS011;61927;50.080;14.418;2022-11-15T03:27:07;42.10;;;20.73;;
73632;SDS011;61927;50.080;14.418;2022-11-15T03:29:37;47.55;;;22.02;;
73632;SDS011;61927;50.080;14.418;2022-11-15T03:32:08;45.03;;;21.90;;
73632;SDS011;61927;50.080;14.418;2022-11-15T03:34:39;44.85;;;21.88;;
73632;SDS011;61927;50.080;14.418;2022-11-15T03:37:10;61.08;;;21.67;;
73632;SDS011;61927;50.080;14.418;2022-11-15T03:39:39;46.58;;;21.55;;
73632;SDS011;61927;50.080;14.418;2022-11-15T03:47:38;50.65;;;21.58;;
73632;SDS011;61927;50.080;14.418;2022-11-15T03:50:08;42.65;;;20.80;;
73632;SDS011;61927;50.080;14.418;2022-11-15T03:52:39;44.03;;;21.27;;
73632;SDS011;61927;50.080;14.418;2022-11-15T03:55:07;48.80;;;21.58;;
73632;SDS011;61927;50.080;14.418;2022-11-15T03:57:35;56.63;;;22.80;;
73632;SDS011;61927;50.080;14.418;2022-11-15T04:00:01;57.63;;;21.13;;
73632;SDS011;61927;50.080;14.418;2022-11-15T04:02:28;45.58;;;19.70;;
73632;SDS011;61927;50.080;14.418;2022-11-15T04:04:54;42.92;;;20.80;;
73632;SDS011;61927;50.080;14.418;2022-11-15T04:07:19;43.30;;;20.52;;
73632;SDS011;61927;50.080;14.418;2022-11-15T04:09:45;47.80;;;20.45;;
73632;SDS011;61927;50.080;14.418;2022-11-15T04:12:29;65.30;;;20.52;;
73632;SDS011;61927;50.080;14.418;2022-11-15T04:15:08;57.17;;;19.95;;
73632;SDS011;61927;50.080;14.418;2022-11-15T04:17:40;49.00;;;21.67;;
73632;SDS011;61927;50.080;14.418;2022-11-15T04:20:12;45.35;;;21.73;;
73632;SDS011;61927;50.080;14.418;2022-11-15T04:23:02;49.65;;;20.08;;
73632;SDS011;61927;50.080;14.418;2022-11-15T04:25:52;48.67;;;20.13;;
73632;SDS011;61927;50.080;14.418;2022-11-15T04:28:19;58.58;;;21.25;;
73632;SDS011;61927;50.080;14.418;2022-11-15T04:30:45;56.63;;;20.13;;
73632;SDS011;61927;50.080;14.418;2022-11-15T04:33:10;51.03;;;21.98;;
73632;SDS011;61927;50.080;14.418;2022-11-15T04:35:36;58.63;;;21.52;;
73632;SDS011;61927;50.080;14.418;2022-11-15T04:38:03;41.83;;;20.92;;
73632;SDS011;61927;50.080;14.418;2022-11-15T04:40:29;58.05;;;21.58;;
73632;SDS011;61927;50.080;14.418;2022-11-15T04:42:55;39.55;;;18.58;;
73632;SDS011;61927;50.080;14.418;2022-11-15T04:45:21;38.97;;;17.13;;
73632;SDS011;61927;50.080;14.418;2022-11-15T04:47:46;43.83;;;19.13;;
73632;SDS011;61927;50.080;14.418;2022-11-15T04:50:12;32.03;;;17.25;;
73632;SDS011;61927;50.080;14.418;2022-11-15T04:52:44;32.47;;;16.98;;
73632;SDS011;61927;50.080;14.418;2022-11-15T04:55:16;33.90;;;16.73;;
73632;SDS011;61927;50.080;14.418;2022-11-15T04:57:42;33.83;;;17.35;;
73632;SDS011;61927;50.080;14.418;2022-11-15T05:00:09;29.77;;;15.70;;
73632;SDS011;61927;50.080;14.418;2022-11-15T05:02:37;28.33;;;15.23;;
73632;SDS011;61927;50.080;14.418;2022-11-15T05:05:21;48.83;;;17.67;;
73632;SDS011;61927;50.080;14.418;2022-11-15T05:07:47;37.20;;;17.70;;
73632;SDS011;61927;50.080;14.418;2022-11-15T05:10:12;38.22;;;19.58;;
73632;SDS011;61927;50.080;14.418;2022-11-15T05:12:38;43.10;;;19.15;;
73632;SDS011;61927;50.080;14.418;2022-11-15T05:15:04;48.53;;;20.45;;
73632;SDS011;61927;50.080;14.418;2022-11-15T05:17:30;44.00;;;19.52;;
73632;SDS011;61927;50.080;14.418;2022-11-15T05:19:55;41.20;;;19.13;;
73632;SDS011;61927;50.080;14.418;2022-11-15T05:22:21;43.25;;;19.52;;
73632;SDS011;61927;50.080;14.418;2022-11-15T05:24:47;39.30;;;18.52;;
73632;SDS011;61927;50.080;14.418;2022-11-15T05:27:13;39.80;;;17.60;;
73632;SDS011;61927;50.080;14.418;2022-11-15T05:29:38;37.15;;;17.98;;
73632;SDS011;61927;50.080;14.418;2022-11-15T05:32:05;36.70;;;18.90;;
73632;SDS011;61927;50.080;14.418;2022-11-15T05:34:31;39.63;;;18.50;;
73632;SDS011;61927;50.080;14.418;2022-11-15T05:36:57;38.22;;;16.67;;
73632;SDS011;61927;50.080;14.418;2022-11-15T05:39:23;42.45;;;17.70;;
73632;SDS011;61927;50.080;14.418;2022-11-15T05:41:54;28.92;;;15.55;;
73632;SDS011;61927;50.080;14.418;2022-11-15T05:44:25;31.48;;;15.45;;
73632;SDS011;61927;50.080;14.418;2022-11-15T05:46:52;33.03;;;15.82;;
73632;SDS011;61927;50.080;14.418;2022-11-15T05:49:21;30.02;;;14.70;;
73632;SDS011;61927;50.080;14.418;2022-11-15T05:51:49;28.05;;;15.35;;
73632;SDS011;61927;50.080;14.418;2022-11-15T05:54:16;29.30;;;15.13;;
73632;SDS011;61927;50.080;14.418;2022-11-15T05:56:44;28.73;;;15.20;;
73632;SDS011;61927;50.080;14.418;2022-11-15T05:59:10;31.77;;;15.65;;
73632;SDS011;61927;50.080;14.418;2022-11-15T06:01:36;28.75;;;14.95;;
73632;SDS011;61927;50.080;14.418;2022-11-15T06:04:03;31.35;;;15.73;;
73632;SDS011;61927;50.080;14.418;2022-11-15T06:06:28;28.50;;;15.07;;
73632;SDS011;61927;50.080;14.418;2022-11-15T06:08:54;26.95;;;13.95;;
73632;SDS011;61927;50.080;14.418;2022-11-15T06:11:20;30.65;;;14.50;;
73632;SDS011;61927;50.080;14.418;2022-11-15T06:13:45;32.88;;;15.70;;
73632;SDS011;61927;50.080;14.418;2022-11-15T06:16:11;34.72;;;14.77;;
73632;SDS011;61927;50.080;14.418;2022-11-15T06:18:37;32.22;;;15.23;;
73632;SDS011;61927;50.080;14.418;2022-11-15T06:21:03;29.38;;;14.27;;
73632;SDS011;61927;50.080;14.418;2022-11-15T06:23:31;27.80;;;13.68;;
73632;SDS011;61927;50.080;14.418;2022-11-15T06:25:57;28.52;;;13.63;;
73632;SDS011;61927;50.080;14.418;2022-11-15T06:28:24;32.45;;;15.65;;
73632;SDS011;61927;50.080;14.418;2022-11-15T06:30:50;33.10;;;15.95;;
73632;SDS011;61927;50.080;14.418;2022-11-15T06:33:15;31.13;;;15.57;;
73632;SDS011;61927;50.080;14.418;2022-11-15T06:35:41;32.28;;;15.95;;
73632;SDS011;61927;50.080;14.418;2022-11-15T06:38:07;34.42;;;15.68;;
73632;SDS011;61927;50.080;14.418;2022-11-15T06:40:36;40.60;;;18.88;;
73632;SDS011;61927;50.080;14.418;2022-11-15T06:43:03;31.85;;;15.57;;
73632;SDS011;61927;50.080;14.418;2022-11-15T06:45:30;29.30;;;14.80;;
73632;SDS011;61927;50.080;14.418;2022-11-15T06:47:56;27.58;;;14.70;;
73632;SDS011;61927;50.080;14.418;2022-11-15T06:50:22;30.30;;;14.18;;
73632;SDS011;61927;50.080;14.418;2022-11-15T06:52:47;29.58;;;14.73;;
73632;SDS011;61927;50.080;14.418;2022-11-15T06:55:13;25.70;;;14.75;;
73632;SDS011;61927;50.080;14.418;2022-11-15T06:57:46;31.42;;;14.70;;
73632;SDS011;61927;50.080;14.418;2022-11-15T07:00:16;28.27;;;14.88;;
73632;SDS011;61927;50.080;14.418;2022-11-15T07:02:43;28.10;;;14.48;;
73632;SDS011;61927;50.080;14.418;2022-11-15T07:05:09;27.38;;;14.38;;
73632;SDS011;61927;50.080;14.418;2022-11-15T07:07:35;32.38;;;18.58;;
73632;SDS011;61927;50.080;14.418;2022-11-15T07:10:01;33.08;;;16.08;;
73632;SDS011;61927;50.080;14.418;2022-11-15T07:12:26;29.17;;;15.98;;
73632;SDS011;61927;50.080;14.418;2022-11-15T07:14:52;27.38;;;15.10;;
73632;SDS011;61927;50.080;14.418;2022-11-15T07:17:17;25.92;;;14.93;;
73632;SDS011;61927;50.080;14.418;2022-11-15T07:19:43;28.65;;;14.63;;
73632;SDS011;61927;50.080;14.418;2022-11-15T07:22:08;29.02;;;15.50;;
73632;SDS011;61927;50.080;14.418;2022-11-15T07:24:34;24.80;;;14.85;;
73632;SDS011;61927;50.080;14.418;2022-11-15T07:26:59;25.20;;;14.18;;
73632;SDS011;61927;50.080;14.418;2022-11-15T07:29:25;26.40;;;14.80;;
73632;SDS011;61927;50.080;14.418;2022-11-15T07:31:51;26.75;;;13.40;;
73632;SDS011;61927;50.080;14.418;2022-11-15T07:34:17;29.08;;;13.77;;
73632;SDS011;61927;50.080;14.418;2022-11-15T07:36:42;28.27;;;14.15;;
73632;SDS011;61927;50.080;14.418;2022-11-15T07:39:08;27.27;;;16.13;;
73632;SDS011;61927;50.080;14.418;2022-11-15T07:41:34;36.95;;;14.95;;
73632;SDS011;61927;50.080;14.418;2022-11-15T07:44:00;28.00;;;15.85;;
73632;SDS011;61927;50.080;14.418;2022-11-15T07:46:26;28.25;;;14.43;;
73632;SDS011;61927;50.080;14.418;2022-11-15T07:48:52;28.13;;;14.00;;
73632;SDS011;61927;50.080;14.418;2022-11-15T07:51:18;26.17;;;14.55;;
73632;SDS011;61927;50.080;14.418;2022-11-15T07:53:45;21.95;;;13.93;;
73632;SDS011;61927;50.080;14.418;2022-11-15T07:56:11;24.45;;;14.40;;
73632;SDS011;61927;50.080;14.418;2022-11-15T07:58:37;25.98;;;14.15;;
73632;SDS011;61927;50.080;14.418;2022-11-15T08:01:03;26.92;;;13.93;;
73632;SDS011;61927;50.080;14.418;2022-11-15T08:03:30;28.35;;;13.85;;
73632;SDS011;61927;50.080;14.418;2022-11-15T08:05:56;27.98;;;14.23;;
73632;SDS011;61927;50.080;14.418;2022-11-15T08:08:21;31.10;;;15.85;;
73632;SDS011;61927;50.080;14.418;2022-11-15T08:10:47;32.10;;;15.35;;
73632;SDS011;61927;50.080;14.418;2022-11-15T08:13:13;25.85;;;15.68;;
73632;SDS011;61927;50.080;14.418;2022-11-15T08:15:39;27.08;;;15.20;;
73632;SDS011;61927;50.080;14.418;2022-11-15T08:18:09;22.80;;;14.45;;
73632;SDS011;61927;50.080;14.418;2022-11-15T08:20:37;31.75;;;14.57;;
73632;SDS011;61927;50.080;14.418;2022-11-15T08:23:03;21.90;;;13.82;;
73632;SDS011;61927;50.080;14.418;2022-11-15T08:25:30;29.27;;;15.77;;
73632;SDS011;61927;50.080;14.418;2022-11-15T08:27:58;22.08;;;13.60;;
73632;SDS011;61927;50.080;14.418;2022-11-15T08:30:25;23.17;;;14.20;;
73632;SDS011;61927;50.080;14.418;2022-11-15T08:32:52;28.10;;;16.33;;
73632;SDS011;61927;50.080;14.418;2022-11-15T08:35:18;27.33;;;14.70;;
73632;SDS011;61927;50.080;14.418;2022-11-15T08:37:45;28.13;;;14.48;;
73632;SDS011;61927;50.080;14.418;2022-11-15T08:40:11;23.13;;;14.18;;
73632;SDS011;61927;50.080;14.418;2022-11-15T08:42:37;28.45;;;14.30;;
73632;SDS011;61927;50.080;14.418;2022-11-15T08:45:03;29.90;;;13.85;;
73632;SDS011;61927;50.080;14.418;2022-11-15T08:47:29;23.35;;;13.98;;
73632;SDS011;61927;50.080;14.418;2022-11-15T08:49:54;30.63;;;15.52;;
73632;SDS011;61927;50.080;14.418;2022-11-15T08:52:20;26.90;;;14.75;;
73632;SDS011;61927;50.080;14.418;2022-11-15T08:54:46;27.02;;;15.65;;
73632;SDS011;61927;50.080;14.418;2022-11-15T08:57:12;31.35;;;14.70;;
73632;SDS011;61927;50.080;14.418;2022-11-15T08:59:38;29.88;;;16.05;;
73632;SDS011;61927;50.080;14.418;2022-11-15T09:02:04;29.48;;;15.63;;
73632;SDS011;61927;50.080;14.418;2022-11-15T09:04:31;29.02;;;15.65;;
73632;SDS011;61927;50.080;14.418;2022-11-15T09:06:57;30.13;;;15.30;;
73632;SDS011;61927;50.080;14.418;2022-11-15T09:09:22;28.80;;;16.73;;
73632;SDS011;61927;50.080;14.418;2022-11-15T09:11:48;30.33;;;15.75;;
73632;SDS011;61927;50.080;14.418;2022-11-15T09:14:14;37.10;;;15.75;;
73632;SDS011;61927;50.080;14.418;2022-11-15T09:16:40;37.40;;;16.38;;
73632;SDS011;61927;50.080;14.418;2022-11-15T09:19:05;30.83;;;16.58;;
73632;SDS011;61927;50.080;14.418;2022-11-15T09:21:32;29.35;;;15.57;;
73632;SDS011;61927;50.080;14.418;2022-11-15T09:23:57;31.65;;;15.77;;
73632;SDS011;61927;50.080;14.418;2022-11-15T09:26:23;23.05;;;14.77;;
73632;SDS011;61927;50.080;14.418;2022-11-15T09:28:49;25.83;;;15.57;;
73632;SDS011;61927;50.080;14.418;2022-11-15T09:31:15;31.88;;;15.00;;
73632;SDS011;61927;50.080;14.418;2022-11-15T09:33:43;29.95;;;15.98;;
73632;SDS011;61927;50.080;14.418;2022-11-15T09:36:10;28.55;;;15.38;;
73632;SDS011;61927;50.080;14.418;2022-11-15T09:38:35;27.25;;;15.65;;
73632;SDS011;61927;50.080;14.418;2022-11-15T09:49:19;32.35;;;15.32;;
73632;SDS011;61927;50.080;14.418;2022-11-15T09:51:45;27.38;;;14.50;;
73632;SDS011;61927;50.080;14.418;2022-11-15T09:54:34;26.35;;;14.32;;
73632;SDS011;61927;50.080;14.418;2022-11-15T09:57:12;26.98;;;14.82;;
73632;SDS011;61927;50.080;14.418;2022-11-15T10:02:19;30.25;;;15.25;;
73632;SDS011;61927;50.080;14.418;2022-11-15T10:05:10;23.50;;;14.23;;
73632;SDS011;61927;50.080;14.418;2022-11-15T10:07:45;24.98;;;14.40;;
73632;SDS011;61927;50.080;14.418;2022-11-15T10:10:25;30.08;;;17.58;;
73632;SDS011;61927;50.080;14.418;2022-11-15T10:12:57;28.20;;;16.27;;
73632;SDS011;61927;50.080;14.418;2022-11-15T10:15:24;25.35;;;14.07;;
73632;SDS011;61927;50.080;14.418;2022-11-15T10:20:26;25.40;;;14.43;;
73632;SDS011;61927;50.080;14.418;2022-11-15T10:22:56;25.77;;;14.63;;
73632;SDS011;61927;50.080;14.418;2022-11-15T10:25:29;25.50;;;14.70;;
73632;SDS011;61927;50.080;14.418;2022-11-15T10:27:57;34.13;;;13.63;;
73632;SDS011;61927;50.080;14.418;2022-11-15T10:30:43;25.67;;;14.05;;
73632;SDS011;61927;50.080;14.418;2022-11-15T10:39:10;97.15;;;21.27;;
73632;SDS011;61927;50.080;14.418;2022-11-15T10:41:30;30.00;;;16.55;;
73632;SDS011;61927;50.080;14.418;2022-11-15T10:46:31;33.40;;;17.38;;
73632;SDS011;61927;50.080;14.418;2022-11-15T10:51:43;33.50;;;16.90;;
73632;SDS011;61927;50.080;14.418;2022-11-15T10:54:12;30.20;;;17.52;;
73632;SDS011;61927;50.080;14.418;2022-11-15T10:56:44;30.05;;;17.48;;
73632;SDS011;61927;50.080;14.418;2022-11-15T10:59:16;42.03;;;18.30;;
73632;SDS011;61927;50.080;14.418;2022-11-15T11:01:48;40.58;;;20.10;;
73632;SDS011;61927;50.080;14.418;2022-11-15T11:04:14;40.80;;;21.05;;
73632;SDS011;61927;50.080;14.418;2022-11-15T11:06:53;35.90;;;18.88;;
73632;SDS011;61927;50.080;14.418;2022-11-15T11:09:28;36.33;;;20.08;;
73632;SDS011;61927;50.080;14.418;2022-11-15T11:11:57;38.50;;;20.13;;
73632;SDS011;61927;50.080;14.418;2022-11-15T11:16:53;54.63;;;19.63;;
73632;SDS011;61927;50.080;14.418;2022-11-15T11:22:31;47.40;;;19.83;;
73632;SDS011;61927;50.080;14.418;2022-11-15T11:30:22;30.33;;;18.75;;
73632;SDS011;61927;50.080;14.418;2022-11-15T11:32:57;31.83;;;19.23;;
73632;SDS011;61927;50.080;14.418;2022-11-15T11:38:11;47.47;;;23.00;;
73632;SDS011;61927;50.080;14.418;2022-11-15T11:41:01;31.13;;;16.50;;
73632;SDS011;61927;50.080;14.418;2022-11-15T11:43:52;27.80;;;17.30;;
73632;SDS011;61927;50.080;14.418;2022-11-15T11:49:00;45.70;;;20.63;;
73632;SDS011;61927;50.080;14.418;2022-11-15T11:51:34;43.75;;;19.10;;
73632;SDS011;61927;50.080;14.418;2022-11-15T11:54:14;36.25;;;17.80;;
73632;SDS011;61927;50.080;14.418;2022-11-15T11:56:46;38.45;;;18.77;;
73632;SDS011;61927;50.080;14.418;2022-11-15T12:02:15;40.83;;;19.55;;
73632;SDS011;61927;50.080;14.418;2022-11-15T12:04:50;38.05;;;19.25;;
73632;SDS011;61927;50.080;14.418;2022-11-15T12:07:20;38.88;;;19.98;;
73632;SDS011;61927;50.080;14.418;2022-11-15T12:12:23;35.10;;;18.88;;
73632;SDS011;61927;50.080;14.418;2022-11-15T12:14:53;30.83;;;17.63;;
73632;SDS011;61927;50.080;14.418;2022-11-15T12:17:25;31.73;;;19.45;;
73632;SDS011;61927;50.080;14.418;2022-11-15T12:19:57;40.70;;;19.55;;
73632;SDS011;61927;50.080;14.418;2022-11-15T12:25:05;31.45;;;18.02;;
73632;SDS011;61927;50.080;14.418;2022-11-15T12:30:36;149.40;;;25.88;;
73632;SDS011;61927;50.080;14.418;2022-11-15T12:41:25;33.17;;;17.02;;
73632;SDS011;61927;50.080;14.418;2022-11-15T12:43:56;34.05;;;18.50;;
73632;SDS011;61927;50.080;14.418;2022-11-15T12:49:02;31.13;;;18.17;;
73632;SDS011;61927;50.080;14.418;2022-11-15T13:02:35;62.35;;;21.38;;
73632;SDS011;61927;50.080;14.418;2022-11-15T13:17:53;33.15;;;17.45;;
73632;SDS011;61927;50.080;14.418;2022-11-15T13:20:27;37.00;;;18.67;;
73632;SDS011;61927;50.080;14.418;2022-11-15T13:28:44;40.25;;;20.60;;
73632;SDS011;61927;50.080;14.418;2022-11-15T13:33:55;32.75;;;19.25;;
73632;SDS011;61927;50.080;14.418;2022-11-15T13:36:28;40.78;;;19.15;;
73632;SDS011;61927;50.080;14.418;2022-11-15T13:41:47;39.72;;;19.75;;
73632;SDS011;61927;50.080;14.418;2022-11-15T13:44:25;43.88;;;19.95;;
73632;SDS011;61927;50.080;14.418;2022-11-15T13:47:02;43.35;;;19.52;;
73632;SDS011;61927;50.080;14.418;2022-11-15T13:49:31;38.22;;;21.98;;
73632;SDS011;61927;50.080;14.418;2022-11-15T13:51:58;32.97;;;18.63;;
73632;SDS011;61927;50.080;14.418;2022-11-15T13:57:19;33.75;;;19.73;;
73632;SDS011;61927;50.080;14.418;2022-11-15T14:02:24;31.23;;;18.70;;
73632;SDS011;61927;50.080;14.418;2022-11-15T14:04:59;34.60;;;18.83;;
73632;SDS011;61927;50.080;14.418;2022-11-15T14:07:30;37.30;;;19.77;;
73632;SDS011;61927;50.080;14.418;2022-11-15T14:09:56;35.80;;;19.15;;
73632;SDS011;61927;50.080;14.418;2022-11-15T14:14:57;504.25;;;60.08;;
73632;SDS011;61927;50.080;14.418;2022-11-15T14:17:43;127.55;;;27.02;;
73632;SDS011;61927;50.080;14.418;2022-11-15T14:20:27;33.80;;;18.67;;
73632;SDS011;61927;50.080;14.418;2022-11-15T14:23:18;38.75;;;19.98;;
73632;SDS011;61927;50.080;14.418;2022-11-15T14:25:55;46.58;;;20.27;;
73632;SDS011;61927;50.080;14.418;2022-11-15T14:30:48;38.33;;;20.02;;
73632;SDS011;61927;50.080;14.418;2022-11-15T14:33:19;39.28;;;20.55;;
73632;SDS011;61927;50.080;14.418;2022-11-15T14:35:48;43.55;;;19.48;;
73632;SDS011;61927;50.080;14.418;2022-11-15T14:38:14;35.92;;;20.17;;
73632;SDS011;61927;50.080;14.418;2022-11-15T14:40:40;38.03;;;20.98;;
73632;SDS011;61927;50.080;14.418;2022-11-15T14:43:08;31.95;;;18.02;;
73632;SDS011;61927;50.080;14.418;2022-11-15T14:45:35;34.95;;;19.00;;
73632;SDS011;61927;50.080;14.418;2022-11-15T14:48:01;33.40;;;18.63;;
73632;SDS011;61927;50.080;14.418;2022-11-15T14:50:26;47.63;;;27.75;;
73632;SDS011;61927;50.080;14.418;2022-11-15T14:52:53;41.20;;;23.90;;
73632;SDS011;61927;50.080;14.418;2022-11-15T14:55:28;50.05;;;26.67;;
73632;SDS011;61927;50.080;14.418;2022-11-15T14:58:00;32.97;;;19.40;;
73632;SDS011;61927;50.080;14.418;2022-11-15T15:00:29;37.70;;;20.20;;
73632;SDS011;61927;50.080;14.418;2022-11-15T15:02:55;35.00;;;18.30;;
73632;SDS011;61927;50.080;14.418;2022-11-15T15:05:22;34.75;;;18.10;;
73632;SDS011;61927;50.080;14.418;2022-11-15T15:07:55;31.20;;;17.40;;
73632;SDS011;61927;50.080;14.418;2022-11-15T15:10:21;32.92;;;16.92;;
73632;SDS011;61927;50.080;14.418;2022-11-15T15:12:47;30.02;;;16.20;;
73632;SDS011;61927;50.080;14.418;2022-11-15T15:15:17;41.58;;;16.58;;
73632;SDS011;61927;50.080;14.418;2022-11-15T15:17:49;34.38;;;17.20;;
73632;SDS011;61927;50.080;14.418;2022-11-15T15:20:16;39.60;;;19.67;;
73632;SDS011;61927;50.080;14.418;2022-11-15T15:22:42;36.55;;;18.13;;
73632;SDS011;61927;50.080;14.418;2022-11-15T15:25:53;35.10;;;18.20;;
73632;SDS011;61927;50.080;14.418;2022-11-15T15:27:58;33.28;;;17.88;;
73632;SDS011;61927;50.080;14.418;2022-11-15T15:30:26;44.90;;;17.65;;
73632;SDS011;61927;50.080;14.418;2022-11-15T15:32:54;32.42;;;17.95;;
73632;SDS011;61927;50.080;14.418;2022-11-15T15:35:20;30.95;;;16.98;;
73632;SDS011;61927;50.080;14.418;2022-11-15T15:37:46;28.40;;;15.52;;
73632;SDS011;61927;50.080;14.418;2022-11-15T15:40:17;30.02;;;15.07;;
73632;SDS011;61927;50.080;14.418;2022-11-15T15:42:45;28.88;;;16.55;;
73632;SDS011;61927;50.080;14.418;2022-11-15T15:45:12;32.53;;;15.85;;
73632;SDS011;61927;50.080;14.418;2022-11-15T15:47:40;28.88;;;16.20;;
73632;SDS011;61927;50.080;14.418;2022-11-15T15:53:09;31.67;;;15.90;;
73632;SDS011;61927;50.080;14.418;2022-11-15T15:55:36;31.27;;;16.98;;
73632;SDS011;61927;50.080;14.418;2022-11-15T15:58:02;29.33;;;16.75;;
73632;SDS011;61927;50.080;14.418;2022-11-15T16:00:28;30.55;;;17.00;;
73632;SDS011;61927;50.080;14.418;2022-11-15T16:02:54;30.30;;;15.85;;
73632;SDS011;61927;50.080;14.418;2022-11-15T16:05:20;26.77;;;15.55;;
73632;SDS011;61927;50.080;14.418;2022-11-15T16:07:47;26.40;;;14.65;;
73632;SDS011;61927;50.080;14.418;2022-11-15T16:10:24;44.25;;;15.85;;
73632;SDS011;61927;50.080;14.418;2022-11-15T16:12:51;30.23;;;15.10;;
73632;SDS011;61927;50.080;14.418;2022-11-15T16:15:17;31.67;;;15.68;;
73632;SDS011;61927;50.080;14.418;2022-11-15T16:17:47;26.05;;;15.40;;
73632;SDS011;61927;50.080;14.418;2022-11-15T16:20:23;23.65;;;13.90;;
73632;SDS011;61927;50.080;14.418;2022-11-15T16:22:54;21.25;;;13.60;;
73632;SDS011;61927;50.080;14.418;2022-11-15T16:25:19;28.77;;;14.05;;
73632;SDS011;61927;50.080;14.418;2022-11-15T16:27:45;26.98;;;14.82;;
73632;SDS011;61927;50.080;14.418;2022-11-15T16:30:15;28.02;;;14.00;;
73632;SDS011;61927;50.080;14.418;2022-11-15T16:32:42;22.05;;;13.25;;
73632;SDS011;61927;50.080;14.418;2022-11-15T16:35:10;21.67;;;13.48;;
73632;SDS011;61927;50.080;14.418;2022-11-15T16:37:38;24.45;;;13.13;;
73632;SDS011;61927;50.080;14.418;2022-11-15T16:40:27;33.55;;;16.13;;
73632;SDS011;61927;50.080;14.418;2022-11-15T16:42:59;42.78;;;23.80;;